sensor_id;sensor_type;location;lat;lon;timestamp;pressure;altitude;pressure_sealevel;temperature;humidity
10806;BME280;5455;53.224;6.000;2023-12-20T00:02:17;101232.59;;;7.00;100.00
10806;BME280;5455;53.224;6.000;2023-12-20T00:04:44;101230.97;;;6.99;100.00
10806;BME280;5455;53.224;6.000;2023-12-20T00:07:11;101233.72;;;6.99;100.00
10806;BME280;5455;53.224;6.000;2023-12-20T00:09:39;101234.53;;;6.99;100.00
10806;BME280;5455;53.224;6.000;2023-12-20T00:12:06;101231.59;;;7.04;100.00
10806;BME280;5455;53.224;6.000;2023-12-20T00:14:33;101224.03;;;7.01;100.00
10806;BME280;5455;53.224;6.000;2023-12-20T00:17:00;101228.69;;;7.01;100.00
10806;BME280;5455;53.224;6.000;2023-12-20T00:19:27;101235.16;;;7.05;100.00
10806;BME280;5455;53.224;6.000;2023-12-20T00:21:54;101227.09;;;7.08;100.00
10806;BME280;5455;53.224;6.000;2023-12-20T00:24:21;101224.00;;;7.10;100.00
10806;BME280;5455;53.224;6.000;2023-12-20T00:26:48;101242.22;;;7.14;100.00
10806;BME280;5455;53.224;6.000;2023-12-20T00:29:15;101234.47;;;7.16;100.00
10806;BME280;5455;53.224;6.000;2023-12-20T00:31:42;101221.56;;;7.17;100.00
10806;BME280;5455;53.224;6.000;2023-12-20T00:34:09;101228.50;;;7.23;100.00
10806;BME280;5455;53.224;6.000;2023-12-20T00:36:36;101225.56;;;7.28;100.00
10806;BME280;5455;53.224;6.000;2023-12-20T00:39:03;101228.66;;;7.27;100.00
10806;BME280;5455;53.224;6.000;2023-12-20T00:41:31;101221.84;;;7.24;100.00
10806;BME280;5455;53.224;6.000;2023-12-20T00:43:58;101223.94;;;7.27;100.00
10806;BME280;5455;53.224;6.000;2023-12-20T00:46:25;101225.25;;;7.21;100.00
10806;BME280;5455;53.224;6.000;2023-12-20T00:48:52;101229.97;;;7.20;100.00
10806;BME280;5455;53.224;6.000;2023-12-20T00:51:20;101215.91;;;7.22;100.00
10806;BME280;5455;53.224;6.000;2023-12-20T00:53:49;101203.66;;;7.19;100.00
10806;BME280;5455;53.224;6.000;2023-12-20T00:56:16;101203.19;;;7.17;100.00
10806;BME280;5455;53.224;6.000;2023-12-20T00:58:43;101196.53;;;7.27;100.00
10806;BME280;5455;53.224;6.000;2023-12-20T01:01:11;101192.44;;;7.42;100.00
10806;BME280;5455;53.224;6.000;2023-12-20T01:03:39;101217.56;;;7.52;100.00
10806;BME280;5455;53.224;6.000;2023-12-20T01:06:06;101232.09;;;7.53;100.00
10806;BME280;5455;53.224;6.000;2023-12-20T01:08:33;101203.94;;;7.35;100.00
10806;BME280;5455;53.224;6.000;2023-12-20T01:11:04;101226.22;;;7.25;100.00
10806;BME280;5455;53.224;6.000;2023-12-20T01:13:32;101242.38;;;7.09;100.00
10806;BME280;5455;53.224;6.000;2023-12-20T01:15:59;101215.22;;;6.79;100.00
10806;BME280;5455;53.224;6.000;2023-12-20T01:18:26;101200.22;;;6.68;100.00
10806;BME280;5455;53.224;6.000;2023-12-20T01:20:53;101196.19;;;6.65;100.00
10806;BME280;5455;53.224;6.000;2023-12-20T01:23:20;101184.91;;;6.58;100.00
10806;BME280;5455;53.224;6.000;2023-12-20T01:25:48;101191.53;;;6.57;100.00
10806;BME280;5455;53.224;6.000;2023-12-20T01:28:15;101192.47;;;6.61;100.00
10806;BME280;5455;53.224;6.000;2023-12-20T01:30:42;101182.97;;;6.67;100.00
10806;BME280;5455;53.224;6.000;2023-12-20T01:33:09;101184.41;;;6.73;100.00
10806;BME280;5455;53.224;6.000;2023-12-20T01:35:36;101187.31;;;6.77;100.00
10806;BME280;5455;53.224;6.000;2023-12-20T01:38:04;101177.13;;;6.86;100.00
10806;BME280;5455;53.224;6.000;2023-12-20T01:40:30;101177.44;;;6.93;100.00
10806;BME280;5455;53.224;6.000;2023-12-20T01:43:02;101183.72;;;7.02;100.00
10806;BME280;5455;53.224;6.000;2023-12-20T01:45:29;101167.41;;;7.05;100.00
10806;BME280;5455;53.224;6.000;2023-12-20T01:47:57;101167.69;;;7.12;100.00
10806;BME280;5455;53.224;6.000;2023-12-20T01:50:25;101177.97;;;7.24;100.00
10806;BME280;5455;53.224;6.000;2023-12-20T01:52:55;101181.69;;;7.28;100.00
10806;BME280;5455;53.224;6.000;2023-12-20T01:55:25;101177.16;;;7.32;100.00
10806;BME280;5455;53.224;6.000;2023-12-20T01:57:52;101173.78;;;7.27;100.00
10806;BME280;5455;53.224;6.000;2023-12-20T02:00:20;101157.34;;;7.27;100.00
10806;BME280;5455;53.224;6.000;2023-12-20T02:02:50;101160.56;;;7.29;100.00
10806;BME280;5455;53.224;6.000;2023-12-20T02:05:20;101165.03;;;7.33;100.00
10806;BME280;5455;53.224;6.000;2023-12-20T02:07:47;101149.22;;;7.39;100.00
10806;BME280;5455;53.224;6.000;2023-12-20T02:10:15;101154.38;;;7.40;100.00
10806;BME280;5455;53.224;6.000;2023-12-20T02:12:43;101143.84;;;7.42;100.00
10806;BME280;5455;53.224;6.000;2023-12-20T02:15:10;101139.03;;;7.39;100.00
10806;BME280;5455;53.224;6.000;2023-12-20T02:17:38;101135.81;;;7.37;100.00
10806;BME280;5455;53.224;6.000;2023-12-20T02:20:06;101133.06;;;7.37;100.00
10806;BME280;5455;53.224;6.000;2023-12-20T02:22:33;101136.63;;;7.38;100.00
10806;BME280;5455;53.224;6.000;2023-12-20T02:25:00;101130.34;;;7.37;100.00
10806;BME280;5455;53.224;6.000;2023-12-20T02:27:28;101137.25;;;7.43;100.00
10806;BME280;5455;53.224;6.000;2023-12-20T02:29:55;101138.66;;;7.49;100.00
10806;BME280;5455;53.224;6.000;2023-12-20T02:32:23;101136.06;;;7.53;100.00
10806;BME280;5455;53.224;6.000;2023-12-20T02:34:53;101133.63;;;7.60;100.00
10806;BME280;5455;53.224;6.000;2023-12-20T02:37:20;101125.69;;;7.58;100.00
10806;BME280;5455;53.224;6.000;2023-12-20T02:39:48;101120.56;;;7.57;100.00
10806;BME280;5455;53.224;6.000;2023-12-20T02:42:14;101126.06;;;7.48;100.00
10806;BME280;5455;53.224;6.000;2023-12-20T02:44:41;101123.53;;;7.43;100.00
10806;BME280;5455;53.224;6.000;2023-12-20T02:47:08;101118.50;;;7.45;100.00
10806;BME280;5455;53.224;6.000;2023-12-20T02:49:36;101114.44;;;7.51;100.00
10806;BME280;5455;53.224;6.000;2023-12-20T02:52:03;101127.16;;;7.56;100.00
10806;BME280;5455;53.224;6.000;2023-12-20T02:54:30;101118.41;;;7.62;100.00
10806;BME280;5455;53.224;6.000;2023-12-20T02:56:57;101114.06;;;7.61;100.00
10806;BME280;5455;53.224;6.000;2023-12-20T02:59:24;101113.25;;;7.61;100.00
10806;BME280;5455;53.224;6.000;2023-12-20T03:01:51;101115.75;;;7.45;100.00
10806;BME280;5455;53.224;6.000;2023-12-20T03:04:18;101114.06;;;7.32;100.00
10806;BME280;5455;53.224;6.000;2023-12-20T03:06:46;101121.03;;;7.21;100.00
10806;BME280;5455;53.224;6.000;2023-12-20T03:09:13;101125.09;;;7.15;100.00
10806;BME280;5455;53.224;6.000;2023-12-20T03:11:40;101122.06;;;7.16;100.00
10806;BME280;5455;53.224;6.000;2023-12-20T03:14:07;101124.75;;;7.25;100.00
10806;BME280;5455;53.224;6.000;2023-12-20T03:16:34;101116.47;;;7.34;100.00
10806;BME280;5455;53.224;6.000;2023-12-20T03:19:03;101111.88;;;7.46;100.00
10806;BME280;5455;53.224;6.000;2023-12-20T03:21:30;101099.59;;;7.52;100.00
10806;BME280;5455;53.224;6.000;2023-12-20T03:23:57;101099.13;;;7.50;100.00
10806;BME280;5455;53.224;6.000;2023-12-20T03:26:24;101095.22;;;7.51;100.00
10806;BME280;5455;53.224;6.000;2023-12-20T03:28:51;101090.03;;;7.58;100.00
10806;BME280;5455;53.224;6.000;2023-12-20T03:31:18;101091.16;;;7.57;100.00
10806;BME280;5455;53.224;6.000;2023-12-20T03:33:46;101089.28;;;7.49;100.00
10806;BME280;5455;53.224;6.000;2023-12-20T03:36:13;101096.03;;;7.52;100.00
10806;BME280;5455;53.224;6.000;2023-12-20T03:38:40;101092.78;;;7.58;100.00
10806;BME280;5455;53.224;6.000;2023-12-20T03:41:07;101093.97;;;7.69;100.00
10806;BME280;5455;53.224;6.000;2023-12-20T03:43:34;101103.50;;;7.72;100.00
10806;BME280;5455;53.224;6.000;2023-12-20T03:46:02;101093.47;;;7.76;100.00
10806;BME280;5455;53.224;6.000;2023-12-20T03:48:31;101091.66;;;7.80;100.00
10806;BME280;5455;53.224;6.000;2023-12-20T03:50:58;101086.16;;;7.80;100.00
10806;BME280;5455;53.224;6.000;2023-12-20T03:53:24;101085.69;;;7.78;100.00
10806;BME280;5455;53.224;6.000;2023-12-20T03:55:51;101066.00;;;7.76;100.00
10806;BME280;5455;53.224;6.000;2023-12-20T03:58:18;101071.19;;;7.78;100.00
10806;BME280;5455;53.224;6.000;2023-12-20T04:00:46;101067.41;;;7.82;100.00
10806;BME280;5455;53.224;6.000;2023-12-20T04:03:13;101066.28;;;7.83;100.00
10806;BME280;5455;53.224;6.000;2023-12-20T04:05:41;101057.03;;;7.88;100.00
10806;BME280;5455;53.224;6.000;2023-12-20T04:08:09;101051.28;;;7.81;100.00
10806;BME280;5455;53.224;6.000;2023-12-20T04:10:36;101057.53;;;7.69;100.00
10806;BME280;5455;53.224;6.000;2023-12-20T04:13:04;101059.47;;;7.68;100.00
10806;BME280;5455;53.224;6.000;2023-12-20T04:15:31;101052.16;;;7.72;100.00
10806;BME280;5455;53.224;6.000;2023-12-20T04:17:58;101050.69;;;7.75;100.00
10806;BME280;5455;53.224;6.000;2023-12-20T04:20:26;101042.72;;;7.82;100.00
10806;BME280;5455;53.224;6.000;2023-12-20T04:22:53;101048.63;;;7.93;100.00
10806;BME280;5455;53.224;6.000;2023-12-20T04:25:20;101042.22;;;8.01;100.00
10806;BME280;5455;53.224;6.000;2023-12-20T04:27:47;101050.59;;;8.04;100.00
10806;BME280;5455;53.224;6.000;2023-12-20T04:30:15;101043.19;;;8.05;100.00
10806;BME280;5455;53.224;6.000;2023-12-20T04:32:42;101041.56;;;8.04;100.00
10806;BME280;5455;53.224;6.000;2023-12-20T04:35:09;101041.22;;;8.05;100.00
10806;BME280;5455;53.224;6.000;2023-12-20T04:37:36;101045.13;;;8.04;100.00
10806;BME280;5455;53.224;6.000;2023-12-20T04:40:03;101044.31;;;8.04;100.00
10806;BME280;5455;53.224;6.000;2023-12-20T04:42:32;101033.31;;;8.04;100.00
10806;BME280;5455;53.224;6.000;2023-12-20T04:44:59;101035.03;;;8.08;100.00
10806;BME280;5455;53.224;6.000;2023-12-20T04:47:26;101037.47;;;8.10;100.00
10806;BME280;5455;53.224;6.000;2023-12-20T04:49:53;101037.13;;;8.11;100.00
10806;BME280;5455;53.224;6.000;2023-12-20T04:52:20;101028.56;;;8.13;100.00
10806;BME280;5455;53.224;6.000;2023-12-20T04:54:48;101039.84;;;8.11;100.00
10806;BME280;5455;53.224;6.000;2023-12-20T04:57:15;101042.28;;;8.13;100.00
10806;BME280;5455;53.224;6.000;2023-12-20T04:59:42;101041.75;;;8.19;100.00
10806;BME280;5455;53.224;6.000;2023-12-20T05:02:09;101056.94;;;8.17;100.00
10806;BME280;5455;53.224;6.000;2023-12-20T05:04:36;101054.88;;;8.14;100.00
10806;BME280;5455;53.224;6.000;2023-12-20T05:07:03;101056.94;;;8.17;100.00
10806;BME280;5455;53.224;6.000;2023-12-20T05:09:32;101044.34;;;8.16;100.00
10806;BME280;5455;53.224;6.000;2023-12-20T05:11:59;101033.38;;;8.16;100.00
10806;BME280;5455;53.224;6.000;2023-12-20T05:14:27;101027.06;;;8.15;100.00
10806;BME280;5455;53.224;6.000;2023-12-20T05:16:54;101027.75;;;8.12;100.00
10806;BME280;5455;53.224;6.000;2023-12-20T05:19:21;101032.25;;;8.17;100.00
10806;BME280;5455;53.224;6.000;2023-12-20T05:21:48;101031.44;;;8.16;100.00
10806;BME280;5455;53.224;6.000;2023-12-20T05:24:14;101032.34;;;8.20;100.00
10806;BME280;5455;53.224;6.000;2023-12-20T05:26:41;101034.75;;;8.22;100.00
10806;BME280;5455;53.224;6.000;2023-12-20T05:29:08;101013.91;;;8.21;100.00
10806;BME280;5455;53.224;6.000;2023-12-20T05:31:35;101001.94;;;8.25;100.00
10806;BME280;5455;53.224;6.000;2023-12-20T05:34:02;101006.63;;;8.25;100.00
10806;BME280;5455;53.224;6.000;2023-12-20T05:36:29;101031.94;;;8.30;100.00
10806;BME280;5455;53.224;6.000;2023-12-20T05:38:56;101023.38;;;8.32;100.00
10806;BME280;5455;53.224;6.000;2023-12-20T05:41:23;101017.09;;;8.32;100.00
10806;BME280;5455;53.224;6.000;2023-12-20T05:43:50;101019.03;;;8.31;100.00
10806;BME280;5455;53.224;6.000;2023-12-20T05:46:17;101014.22;;;8.28;100.00
10806;BME280;5455;53.224;6.000;2023-12-20T05:48:44;101009.38;;;8.25;100.00
10806;BME280;5455;53.224;6.000;2023-12-20T05:51:12;101009.09;;;8.18;100.00
10806;BME280;5455;53.224;6.000;2023-12-20T05:53:39;101016.00;;;8.24;100.00
10806;BME280;5455;53.224;6.000;2023-12-20T05:56:06;101013.25;;;8.24;100.00
10806;BME280;5455;53.224;6.000;2023-12-20T05:58:33;101011.75;;;8.26;100.00
10806;BME280;5455;53.224;6.000;2023-12-20T06:01:00;101011.47;;;8.28;100.00
10806;BME280;5455;53.224;6.000;2023-12-20T06:03:27;100997.72;;;8.28;100.00
10806;BME280;5455;53.224;6.000;2023-12-20T06:05:54;101000.94;;;8.30;100.00
10806;BME280;5455;53.224;6.000;2023-12-20T06:08:36;101000.59;;;8.32;100.00
10806;BME280;5455;53.224;6.000;2023-12-20T06:11:03;101003.00;;;8.33;100.00
10806;BME280;5455;53.224;6.000;2023-12-20T06:13:31;101000.94;;;8.30;100.00
10806;BME280;5455;53.224;6.000;2023-12-20T06:15:58;100994.75;;;8.33;100.00
10806;BME280;5455;53.224;6.000;2023-12-20T06:18:25;100996.38;;;8.34;100.00
10806;BME280;5455;53.224;6.000;2023-12-20T06:20:52;100987.69;;;8.32;100.00
10806;BME280;5455;53.224;6.000;2023-12-20T06:23:19;100978.28;;;8.33;100.00
10806;BME280;5455;53.224;6.000;2023-12-20T06:25:46;100990.53;;;8.36;100.00
10806;BME280;5455;53.224;6.000;2023-12-20T06:28:13;100985.97;;;8.40;100.00
10806;BME280;5455;53.224;6.000;2023-12-20T06:30:41;100984.34;;;8.39;100.00
10806;BME280;5455;53.224;6.000;2023-12-20T06:33:08;100991.44;;;8.40;100.00
10806;BME280;5455;53.224;6.000;2023-12-20T06:35:36;100995.00;;;8.40;100.00
10806;BME280;5455;53.224;6.000;2023-12-20T06:38:03;100990.66;;;8.39;100.00
10806;BME280;5455;53.224;6.000;2023-12-20T06:40:30;100981.28;;;8.40;100.00
10806;BME280;5455;53.224;6.000;2023-12-20T06:42:57;100987.09;;;8.39;100.00
10806;BME280;5455;53.224;6.000;2023-12-20T06:45:38;100982.28;;;8.36;100.00
10806;BME280;5455;53.224;6.000;2023-12-20T06:48:05;100972.44;;;8.35;100.00
10806;BME280;5455;53.224;6.000;2023-12-20T06:50:32;100959.97;;;8.37;100.00
10806;BME280;5455;53.224;6.000;2023-12-20T06:52:59;100962.28;;;8.35;100.00
10806;BME280;5455;53.224;6.000;2023-12-20T06:55:26;100965.22;;;8.30;100.00
10806;BME280;5455;53.224;6.000;2023-12-20T06:57:54;100953.63;;;8.24;100.00
10806;BME280;5455;53.224;6.000;2023-12-20T07:00:21;100952.50;;;8.25;100.00
10806;BME280;5455;53.224;6.000;2023-12-20T07:02:48;100960.38;;;8.27;100.00
10806;BME280;5455;53.224;6.000;2023-12-20T07:05:16;100960.03;;;8.16;100.00
10806;BME280;5455;53.224;6.000;2023-12-20T07:07:47;100952.66;;;8.08;100.00
10806;BME280;5455;53.224;6.000;2023-12-20T07:10:15;100950.94;;;8.04;100.00
10806;BME280;5455;53.224;6.000;2023-12-20T07:12:42;100942.72;;;8.04;100.00
10806;BME280;5455;53.224;6.000;2023-12-20T07:15:09;100944.31;;;8.05;100.00
10806;BME280;5455;53.224;6.000;2023-12-20T07:17:37;100939.50;;;8.02;100.00
10806;BME280;5455;53.224;6.000;2023-12-20T07:20:04;100952.63;;;7.96;100.00
10806;BME280;5455;53.224;6.000;2023-12-20T07:22:33;100948.16;;;7.92;100.00
10806;BME280;5455;53.224;6.000;2023-12-20T07:25:01;100954.09;;;7.94;100.00
10806;BME280;5455;53.224;6.000;2023-12-20T07:27:28;100946.81;;;7.98;100.00
10806;BME280;5455;53.224;6.000;2023-12-20T07:29:54;100955.72;;;7.95;100.00
10806;BME280;5455;53.224;6.000;2023-12-20T07:32:21;100951.03;;;7.95;100.00
10806;BME280;5455;53.224;6.000;2023-12-20T07:34:48;100955.31;;;8.05;100.00
10806;BME280;5455;53.224;6.000;2023-12-20T07:37:16;100962.63;;;8.13;100.00
10806;BME280;5455;53.224;6.000;2023-12-20T07:39:43;100969.28;;;8.24;100.00
10806;BME280;5455;53.224;6.000;2023-12-20T07:42:10;100967.09;;;8.38;100.00
10806;BME280;5455;53.224;6.000;2023-12-20T07:44:37;100972.00;;;8.45;100.00
10806;BME280;5455;53.224;6.000;2023-12-20T07:47:04;100962.75;;;8.49;100.00
10806;BME280;5455;53.224;6.000;2023-12-20T07:49:31;100964.78;;;8.40;100.00
10806;BME280;5455;53.224;6.000;2023-12-20T07:51:59;100972.09;;;8.36;100.00
10806;BME280;5455;53.224;6.000;2023-12-20T07:54:26;100957.63;;;8.27;100.00
10806;BME280;5455;53.224;6.000;2023-12-20T07:56:53;100963.34;;;8.22;100.00
10806;BME280;5455;53.224;6.000;2023-12-20T07:59:20;100967.34;;;8.24;100.00
10806;BME280;5455;53.224;6.000;2023-12-20T08:01:58;100988.44;;;8.32;100.00
10806;BME280;5455;53.224;6.000;2023-12-20T08:04:25;100976.69;;;8.32;100.00
10806;BME280;5455;53.224;6.000;2023-12-20T08:06:52;100979.44;;;8.32;100.00
10806;BME280;5455;53.224;6.000;2023-12-20T08:09:19;100985.59;;;8.29;100.00
10806;BME280;5455;53.224;6.000;2023-12-20T08:11:47;100986.38;;;8.29;100.00
10806;BME280;5455;53.224;6.000;2023-12-20T08:14:15;100974.94;;;8.27;100.00
10806;BME280;5455;53.224;6.000;2023-12-20T08:16:44;100983.56;;;8.17;100.00
10806;BME280;5455;53.224;6.000;2023-12-20T08:19:11;100976.38;;;8.13;100.00
10806;BME280;5455;53.224;6.000;2023-12-20T08:21:39;100976.97;;;8.18;100.00
10806;BME280;5455;53.224;6.000;2023-12-20T08:24:06;100982.34;;;8.27;100.00
10806;BME280;5455;53.224;6.000;2023-12-20T08:26:33;100981.50;;;8.35;100.00
10806;BME280;5455;53.224;6.000;2023-12-20T08:29:00;100982.53;;;8.43;100.00
10806;BME280;5455;53.224;6.000;2023-12-20T08:31:28;100969.38;;;8.48;100.00
10806;BME280;5455;53.224;6.000;2023-12-20T08:33:56;100981.75;;;8.54;100.00
10806;BME280;5455;53.224;6.000;2023-12-20T08:36:23;100976.25;;;8.54;100.00
10806;BME280;5455;53.224;6.000;2023-12-20T08:38:51;100982.09;;;8.53;100.00
10806;BME280;5455;53.224;6.000;2023-12-20T08:41:18;100987.09;;;8.51;100.00
10806;BME280;5455;53.224;6.000;2023-12-20T08:43:45;101000.53;;;8.64;100.00
10806;BME280;5455;53.224;6.000;2023-12-20T08:46:13;100974.31;;;8.79;100.00
10806;BME280;5455;53.224;6.000;2023-12-20T08:48:41;101013.59;;;8.79;100.00
10806;BME280;5455;53.224;6.000;2023-12-20T08:51:08;101065.38;;;8.77;100.00
10806;BME280;5455;53.224;6.000;2023-12-20T08:53:36;101059.84;;;8.00;100.00
10806;BME280;5455;53.224;6.000;2023-12-20T08:56:03;101072.19;;;7.23;100.00
10806;BME280;5455;53.224;6.000;2023-12-20T08:58:30;101087.84;;;6.85;100.00
10806;BME280;5455;53.224;6.000;2023-12-20T09:00:57;101077.06;;;6.71;100.00
10806;BME280;5455;53.224;6.000;2023-12-20T09:03:24;101070.16;;;6.65;100.00
10806;BME280;5455;53.224;6.000;2023-12-20T09:05:52;101082.91;;;6.61;100.00
10806;BME280;5455;53.224;6.000;2023-12-20T09:08:18;101065.38;;;6.53;100.00
10806;BME280;5455;53.224;6.000;2023-12-20T09:10:46;101061.81;;;6.53;100.00
10806;BME280;5455;53.224;6.000;2023-12-20T09:13:13;101067.00;;;6.46;100.00
10806;BME280;5455;53.224;6.000;2023-12-20T09:15:40;101070.06;;;6.44;100.00
10806;BME280;5455;53.224;6.000;2023-12-20T09:18:07;101078.91;;;6.50;100.00
10806;BME280;5455;53.224;6.000;2023-12-20T09:20:34;101066.63;;;6.56;100.00
10806;BME280;5455;53.224;6.000;2023-12-20T09:23:03;101075.81;;;6.60;100.00
10806;BME280;5455;53.224;6.000;2023-12-20T09:25:30;101092.22;;;6.69;100.00
10806;BME280;5455;53.224;6.000;2023-12-20T09:27:57;101087.06;;;6.76;100.00
10806;BME280;5455;53.224;6.000;2023-12-20T09:30:24;101086.88;;;6.81;100.00
10806;BME280;5455;53.224;6.000;2023-12-20T09:32:56;101074.25;;;6.88;100.00
10806;BME280;5455;53.224;6.000;2023-12-20T09:35:23;101066.19;;;6.92;100.00
10806;BME280;5455;53.224;6.000;2023-12-20T09:37:51;101068.28;;;6.95;100.00
10806;BME280;5455;53.224;6.000;2023-12-20T09:40:18;101077.25;;;7.04;100.00
10806;BME280;5455;53.224;6.000;2023-12-20T09:43:01;101078.31;;;7.20;100.00
10806;BME280;5455;53.224;6.000;2023-12-20T09:45:30;101077.16;;;7.30;100.00
10806;BME280;5455;53.224;6.000;2023-12-20T09:47:58;101070.94;;;7.41;100.00
10806;BME280;5455;53.224;6.000;2023-12-20T09:50:25;101077.03;;;7.47;100.00
10806;BME280;5455;53.224;6.000;2023-12-20T09:52:53;101084.81;;;7.45;100.00
10806;BME280;5455;53.224;6.000;2023-12-20T09:55:25;101082.84;;;7.45;100.00
10806;BME280;5455;53.224;6.000;2023-12-20T09:57:52;101084.66;;;7.41;100.00
10806;BME280;5455;53.224;6.000;2023-12-20T10:00:19;101088.72;;;7.35;100.00
10806;BME280;5455;53.224;6.000;2023-12-20T10:02:57;101085.50;;;7.33;100.00
10806;BME280;5455;53.224;6.000;2023-12-20T10:05:29;101084.84;;;7.36;100.00
10806;BME280;5455;53.224;6.000;2023-12-20T10:07:58;101086.91;;;7.39;100.00
10806;BME280;5455;53.224;6.000;2023-12-20T10:10:27;101085.63;;;7.37;100.00
10806;BME280;5455;53.224;6.000;2023-12-20T10:13:10;101097.38;;;7.46;100.00
10806;BME280;5455;53.224;6.000;2023-12-20T10:15:38;101104.97;;;7.69;100.00
10806;BME280;5455;53.224;6.000;2023-12-20T10:18:05;101092.84;;;7.91;100.00
10806;BME280;5455;53.224;6.000;2023-12-20T10:20:33;101097.81;;;7.98;100.00
10806;BME280;5455;53.224;6.000;2023-12-20T10:23:00;101093.59;;;8.00;100.00
10806;BME280;5455;53.224;6.000;2023-12-20T10:25:28;101088.97;;;7.92;100.00
10806;BME280;5455;53.224;6.000;2023-12-20T10:30:36;101081.13;;;7.82;100.00
10806;BME280;5455;53.224;6.000;2023-12-20T10:33:05;101083.69;;;7.87;100.00
10806;BME280;5455;53.224;6.000;2023-12-20T10:35:34;101081.66;;;7.96;100.00
10806;BME280;5455;53.224;6.000;2023-12-20T10:38:05;101080.22;;;7.99;100.00
10806;BME280;5455;53.224;6.000;2023-12-20T10:40:36;101085.81;;;8.02;100.00
10806;BME280;5455;53.224;6.000;2023-12-20T10:43:05;101079.78;;;8.09;100.00
10806;BME280;5455;53.224;6.000;2023-12-20T10:45:32;101082.53;;;8.09;100.00
10806;BME280;5455;53.224;6.000;2023-12-20T10:47:59;101073.16;;;8.10;100.00
10806;BME280;5455;53.224;6.000;2023-12-20T10:50:29;101067.59;;;8.18;100.00
10806;BME280;5455;53.224;6.000;2023-12-20T10:52:58;101072.41;;;8.21;100.00
10806;BME280;5455;53.224;6.000;2023-12-20T10:55:25;101076.41;;;8.24;100.00
10806;BME280;5455;53.224;6.000;2023-12-20T10:58:00;101065.72;;;8.31;100.00
10806;BME280;5455;53.224;6.000;2023-12-20T11:00:29;101075.22;;;8.34;100.00
10806;BME280;5455;53.224;6.000;2023-12-20T11:03:01;101065.84;;;8.35;100.00
10806;BME280;5455;53.224;6.000;2023-12-20T11:05:59;101054.50;;;8.36;100.00
10806;BME280;5455;53.224;6.000;2023-12-20T11:08:38;101055.53;;;8.32;100.00
10806;BME280;5455;53.224;6.000;2023-12-20T11:11:28;101052.59;;;8.16;100.00
10806;BME280;5455;53.224;6.000;2023-12-20T11:14:00;101053.41;;;8.16;100.00
10806;BME280;5455;53.224;6.000;2023-12-20T11:16:31;101047.38;;;8.23;100.00
10806;BME280;5455;53.224;6.000;2023-12-20T11:19:14;101041.25;;;8.38;100.00
10806;BME280;5455;53.224;6.000;2023-12-20T11:21:41;101041.63;;;8.49;100.00
10806;BME280;5455;53.224;6.000;2023-12-20T11:24:09;101035.22;;;8.57;100.00
10806;BME280;5455;53.224;6.000;2023-12-20T11:26:36;101041.09;;;8.67;100.00
10806;BME280;5455;53.224;6.000;2023-12-20T11:29:31;101043.84;;;8.67;100.00
10806;BME280;5455;53.224;6.000;2023-12-20T11:32:03;101050.22;;;8.59;100.00
10806;BME280;5455;53.224;6.000;2023-12-20T11:34:51;101041.97;;;8.59;100.00
10806;BME280;5455;53.224;6.000;2023-12-20T11:37:20;101047.81;;;8.58;100.00
10806;BME280;5455;53.224;6.000;2023-12-20T11:40:20;101033.16;;;8.66;100.00
10806;BME280;5455;53.224;6.000;2023-12-20T11:42:50;101027.22;;;8.64;100.00
10806;BME280;5455;53.224;6.000;2023-12-20T11:45:24;101030.91;;;8.68;100.00
10806;BME280;5455;53.224;6.000;2023-12-20T11:47:56;101022.03;;;8.62;100.00
10806;BME280;5455;53.224;6.000;2023-12-20T11:50:24;101014.97;;;8.61;100.00
10806;BME280;5455;53.224;6.000;2023-12-20T11:52:52;100999.84;;;8.55;100.00
10806;BME280;5455;53.224;6.000;2023-12-20T11:55:21;101012.91;;;8.58;100.00
10806;BME280;5455;53.224;6.000;2023-12-20T11:57:50;101003.03;;;8.57;100.00
10806;BME280;5455;53.224;6.000;2023-12-20T12:00:17;101017.59;;;8.58;100.00
10806;BME280;5455;53.224;6.000;2023-12-20T12:02:55;101025.03;;;8.57;100.00
10806;BME280;5455;53.224;6.000;2023-12-20T12:05:22;101019.97;;;8.59;100.00
10806;BME280;5455;53.224;6.000;2023-12-20T12:07:49;101010.16;;;8.58;100.00
10806;BME280;5455;53.224;6.000;2023-12-20T12:10:16;101014.25;;;8.52;100.00
10806;BME280;5455;53.224;6.000;2023-12-20T12:12:43;101011.72;;;8.47;100.00
10806;BME280;5455;53.224;6.000;2023-12-20T12:15:11;101004.63;;;8.46;100.00
10806;BME280;5455;53.224;6.000;2023-12-20T12:17:38;100991.72;;;8.47;100.00
10806;BME280;5455;53.224;6.000;2023-12-20T12:20:05;100987.09;;;8.51;100.00
10806;BME280;5455;53.224;6.000;2023-12-20T12:22:33;100982.88;;;8.53;100.00
10806;BME280;5455;53.224;6.000;2023-12-20T12:25:10;100990.66;;;8.51;100.00
10806;BME280;5455;53.224;6.000;2023-12-20T12:27:41;100989.72;;;8.47;100.00
10806;BME280;5455;53.224;6.000;2023-12-20T12:30:10;100991.47;;;8.52;100.00
10806;BME280;5455;53.224;6.000;2023-12-20T12:32:39;100985.16;;;8.51;100.00
10806;BME280;5455;53.224;6.000;2023-12-20T12:35:07;100981.75;;;8.54;100.00
10806;BME280;5455;53.224;6.000;2023-12-20T12:37:38;100977.50;;;8.57;100.00
10806;BME280;5455;53.224;6.000;2023-12-20T12:40:10;100984.47;;;8.54;100.00
10806;BME280;5455;53.224;6.000;2023-12-20T12:42:38;100979.44;;;8.44;100.00
10806;BME280;5455;53.224;6.000;2023-12-20T12:45:05;100986.06;;;8.31;100.00
10806;BME280;5455;53.224;6.000;2023-12-20T12:47:33;100988.88;;;8.22;100.00
10806;BME280;5455;53.224;6.000;2023-12-20T12:50:00;100998.78;;;8.15;100.00
10806;BME280;5455;53.224;6.000;2023-12-20T12:52:27;100999.81;;;8.10;100.00
10806;BME280;5455;53.224;6.000;2023-12-20T12:54:54;100996.00;;;8.03;100.00
10806;BME280;5455;53.224;6.000;2023-12-20T12:57:21;100982.88;;;8.08;100.00
10806;BME280;5455;53.224;6.000;2023-12-20T12:59:49;100981.59;;;8.06;100.00
10806;BME280;5455;53.224;6.000;2023-12-20T13:02:16;100977.16;;;8.01;100.00
10806;BME280;5455;53.224;6.000;2023-12-20T13:04:43;100981.38;;;7.99;100.00
10806;BME280;5455;53.224;6.000;2023-12-20T13:07:10;100966.78;;;7.86;100.00
10806;BME280;5455;53.224;6.000;2023-12-20T13:09:39;100957.50;;;7.78;100.00